Time;durP1;ratioP1;P1;durP2;ratioP2;P2;SDS_P1;SDS_P2;PMS_P1;PMS_P2;Temp;Humidity;BMP_temperature;BMP_pressure;BME280_temperature;BME280_humidity;BME280_pressure;Samples;Min_cycle;Max_cycle;Signal;HPM_P1;HPM_P2
2022/07/29 00:00:16;;;;;;;;;;;;;;;;;;1044145;28;2693;-56
2022/07/29 00:01:06;;;;;;;;;;;;;;;;;;1045519;28;3928;-56
2022/07/29 00:01:36;;;;;;;;;;;;;;;;;;1044469;28;3769;-55
2022/07/29 00:02:07;;;;;;;;;;;;;;;;;;1046016;28;1661;-56
2022/07/29 00:02:37;;;;;;;;;;;;;;;;;;1044900;28;3982;-58
2022/07/29 00:03:07;;;;;;;;;;;;;;;;;;1045884;28;2162;-55
2022/07/29 00:03:37;;;;;;;;;;;;;;;;;;1044666;28;4330;-56
2022/07/29 00:04:08;;;;;;;;;;;;;;;;;;1044788;28;1744;-57
2022/07/29 00:04:38;;;;;;;;;;;;;;;;;;1045300;28;3820;-52
2022/07/29 00:05:09;;;;;;;;;;;;;;;;;;1045103;28;2693;-57
2022/07/29 00:05:40;;;;;;;;;;;;;;;;;;1045468;28;3894;-56
2022/07/29 00:06:10;;;;;;;;;;;;;;;;;;1044482;28;2738;-58
2022/07/29 00:06:41;;;;;;;;;;;;;;;;;;1035188;28;3954;-56
2022/07/29 00:07:11;;;;;;;;;;;;;;;;;;1035606;28;2385;-56
2022/07/29 00:07:41;;;;;;;;;;;;;;;;;;1036013;28;4198;-56
2022/07/29 00:08:11;;;;;;;;;;;;;;;;;;1036489;28;3191;-58
2022/07/29 00:08:42;;;;;;;;;;;;;;;;;;1045435;28;4045;-55
2022/07/29 00:09:12;;;;;;;;;;;;;;;;;;1040439;28;2375;-57
2022/07/29 00:09:42;;;;;;;;;;;;;;;;;;1039608;28;3945;-55
2022/07/29 00:10:12;;;;;;;;;;;;;;;;;;1039658;28;3833;-57
2022/07/29 00:10:43;;;;;;;;;;;;;;;;;;1039772;28;3891;-51
2022/07/29 00:11:13;;;;;;;;;;;;;;;;;;1045662;28;2313;-55
2022/07/29 00:11:43;;;;;;;;;;;;;;;;;;1043556;28;4034;-55
2022/07/29 00:12:13;;;;;;;;;;;;;;;;;;1044214;28;4032;-58
2022/07/29 00:12:44;;;;;;;;;;;;;;;;;;1045294;28;4430;-57
2022/07/29 00:13:14;;;;;;;;;;;;;;;;;;1043520;28;3681;-57
2022/07/29 00:13:44;;;;;;;;;;;;;;;;;;1045162;28;3768;-54
2022/07/29 00:14:14;;;;;;;;;;;;;;;;;;1045277;28;2445;-57
2022/07/29 00:14:45;;;;;;;;;;;;;;;;;;1044601;28;4036;-55
2022/07/29 00:15:15;;;;;;;;;;;;;;;;;;1039767;28;2915;-57
2022/07/29 00:15:45;;;;;;;;;;;;;;;;;;1041804;28;3944;-57
2022/07/29 00:16:16;;;;;;;;;;;;;;;;;;1040402;28;2405;-57
2022/07/29 00:16:46;;;;;;;;;;;;;;;;;;1040671;28;3888;-57
2022/07/29 00:17:16;;;;;;;;;;;;;;;;;;1043237;28;3577;-52
2022/07/29 00:17:46;;;;;;;;;;;;;;;;;;1045186;28;3928;-53
2022/07/29 00:18:16;;;;;;;;;;;;;;;;;;1045266;28;3643;-55
2022/07/29 00:18:47;;;;;;;;;;;;;;;;;;1044472;28;3797;-56
2022/07/29 00:19:17;;;;;;;;;;;;;;;;;;1045557;28;2365;-57
2022/07/29 00:19:48;;;;;;;;;;;;;;;;;;1041376;28;3876;-53
2022/07/29 00:20:18;;;;;;;;;;;;;;;;;;1043262;28;3136;-58
2022/07/29 00:20:48;;;;;;;;;;;;;;;;;;1042857;28;3866;-56
2022/07/29 00:21:18;;;;;;;;;;;;;;;;;;1045092;28;3747;-56
2022/07/29 00:21:49;;;;;;;;;;;;;;;;;;1042926;28;3996;-55
2022/07/29 00:22:20;;;;;;;;;;;;;;;;;;1045905;28;4365;-54
2022/07/29 00:22:50;;;;;;;;;;;;;;;;;;1043218;28;3854;-56
2022/07/29 00:23:20;;;;;;;;;;;;;;;;;;1045451;28;3504;-57
2022/07/29 00:23:51;;;;;;;;;;;;;;;;;;1044891;28;3825;-54
2022/07/29 00:24:21;;;;;;;;;;;;;;;;;;1043109;28;3000;-58
2022/07/29 00:25:04;;;;;;;;;;;;;;;;;;1044877;28;3737;-56
2022/07/29 00:25:34;;;;;;;;;;;;;;;;;;1043779;28;4418;-54
2022/07/29 00:26:05;;;;;;;;;;;;;;;;;;1045779;28;1618;-55
2022/07/29 00:26:35;;;;;;;;;;;;;;;;;;1043517;28;4047;-57
2022/07/29 00:27:05;;;;;;;;;;;;;;;;;;1045917;28;1677;-56
2022/07/29 00:27:36;;;;;;;;;;;;;;;;;;1043116;28;4078;-56
2022/07/29 00:28:06;;;;;;;;;;;;;;;;;;1044333;28;2232;-53
2022/07/29 00:28:36;;;;;;;;;;;;;;;;;;1044091;28;4179;-57
2022/07/29 00:29:06;;;;;;;;;;;;;;;;;;1045298;28;1923;-57
2022/07/29 00:29:37;;;;;;;;;;;;;;;;;;1044561;28;3933;-53
2022/07/29 00:30:07;;;;;;;;;;;;;;;;;;1039662;28;2217;-54
2022/07/29 00:30:37;;;;;;;;;;;;;;;;;;1039786;28;4012;-52
2022/07/29 00:31:08;;;;;;;;;;;;;;;;;;1039950;28;2634;-58
2022/07/29 00:31:38;;;;;;;;;;;;;;;;;;1039726;28;3897;-52
2022/07/29 00:32:08;;;;;;;;;;;;;;;;;;1044954;28;3804;-55
2022/07/29 00:32:38;;;;;;;;;;;;;;;;;;1041192;28;4139;-58
2022/07/29 00:33:09;;;;;;;;;;;;;;;;;;1039353;28;3503;-57
2022/07/29 00:33:40;;;;;;;;;;;;;;;;;;1041046;28;4071;-57
2022/07/29 00:35:43;;;;;;;;;;;;;;;;;;1041737;28;3256;-53
2022/07/29 00:35:49;;;;;;;;;;;;;;;;;;1046031;28;4074;-59
2022/07/29 00:36:20;;;;;;;;;;;;;;;;;;1044638;28;2520;-56
2022/07/29 00:36:51;;;;;;;;;;;;;;;;;;1043621;28;4112;-55
2022/07/29 00:37:21;;;;;;;;;;;;;;;;;;1043824;28;2706;-60
2022/07/29 00:37:51;;;;;;;;;;;;;;;;;;1045207;28;3810;-58
2022/07/29 00:38:21;;;;;;;;;;;;;;;;;;1044340;28;3184;-55
2022/07/29 00:38:52;;;;;;;;;;;;;;;;;;1045659;28;4183;-54
2022/07/29 00:39:22;;;;;;;;;;;;;;;;;;1043337;28;4119;-52
2022/07/29 00:39:52;;;;;;;;;;;;;;;;;;1045575;28;2384;-55
2022/07/29 00:40:23;;;;;;;;;;;;;;;;;;1043839;28;4076;-57
2022/07/29 00:40:53;;;;;;;;;;;;;;;;;;1046179;28;1528;-54
2022/07/29 00:41:23;;;;;;;;;;;;;;;;;;1042684;28;4017;-56
2022/07/29 00:41:53;;;;;;;;;;;;;;;;;;1045672;28;2948;-56
2022/07/29 00:42:24;;;;;;;;;;;;;;;;;;1044103;28;3981;-57
2022/07/29 00:42:54;;;;;;;;;;;;;;;;;;1044713;28;3000;-58
2022/07/29 00:43:24;;;;;;;;;;;;;;;;;;1044687;28;3920;-54
2022/07/29 00:43:55;;;;;;;;;;;;;;;;;;1044447;28;2615;-55
2022/07/29 00:44:25;;;;;;;;;;;;;;;;;;1039582;28;3821;-56
2022/07/29 00:44:55;;;;;;;;;;;;;;;;;;1040824;28;2148;-53
2022/07/29 00:45:46;;;;;;;;;;;;;;;;;;1038713;28;3905;-59
2022/07/29 00:46:16;;;;;;;;;;;;;;;;;;1042880;28;2942;-54
2022/07/29 00:46:53;;;;;;;;;;;;;;;;;;1042119;28;3953;-55
2022/07/29 00:47:24;;;;;;;;;;;;;;;;;;1039701;28;3837;-57
2022/07/29 00:47:54;;;;;;;;;;;;;;;;;;1040304;28;3833;-56
2022/07/29 00:48:24;;;;;;;;;;;;;;;;;;1034850;28;3926;-57
2022/07/29 00:48:54;;;;;;;;;;;;;;;;;;1036847;28;1847;-59
2022/07/29 00:49:24;;;;;;;;;;;;;;;;;;1035099;28;4010;-58
2022/07/29 00:49:55;;;;;;;;;;;;;;;;;;1040829;28;2171;-56
2022/07/29 00:50:25;;;;;;;;;;;;;;;;;;1039322;28;3932;-58
2022/07/29 00:50:57;;;;;;;;;;;;;;;;;;1041151;28;2148;-56
2022/07/29 00:51:28;;;;;;;;;;;;;;;;;;1039633;28;4071;-57
2022/07/29 00:52:00;;;;;;;;;;;;;;;;;;1040057;28;2927;-58
2022/07/29 00:52:30;;;;;;;;;;;;;;;;;;1039469;28;4519;-57
2022/07/29 00:53:01;;;;;;;;;;;;;;;;;;1041368;28;2767;-55
2022/07/29 00:53:32;;;;;;;;;;;;;;;;;;1040375;28;4055;-56
2022/07/29 00:54:03;;;;;;;;;;;;;;;;;;1039613;28;3768;-55
2022/07/29 00:54:33;;;;;;;;;;;;;;;;;;1045228;28;4164;-54
2022/07/29 00:55:04;;;;;;;;;;;;;;;;;;1046162;28;2266;-56
2022/07/29 00:55:35;;;;;;;;;;;;;;;;;;1044764;28;3933;-54
2022/07/29 00:56:05;;;;;;;;;;;;;;;;;;1046539;28;1921;-56
2022/07/29 00:56:35;;;;;;;;;;;;;;;;;;1039887;28;4199;-58
2022/07/29 00:57:06;;;;;;;;;;;;;;;;;;1041433;28;1646;-59
2022/07/29 00:57:37;;;;;;;;;;;;;;;;;;1039943;28;4224;-55
2022/07/29 00:58:08;;;;;;;;;;;;;;;;;;1040585;28;2670;-55
2022/07/29 00:58:38;;;;;;;;;;;;;;;;;;1041113;28;3917;-57
2022/07/29 00:59:09;;;;;;;;;;;;;;;;;;1041170;28;1687;-55
2022/07/29 00:59:39;;;;;;;;;;;;;;;;;;1040654;28;3980;-55
2022/07/29 01:00:11;;;;;;;;;;;;;;;;;;1038987;28;3105;-55
2022/07/29 01:00:42;;;;;;;;;;;;;;;;;;1040359;28;4250;-59
2022/07/29 01:01:12;;;;;;;;;;;;;;;;;;1040766;28;2375;-57
2022/07/29 01:01:42;;;;;;;;;;;;;;;;;;1039317;28;4407;-58
2022/07/29 01:02:13;;;;;;;;;;;;;;;;;;1040788;28;3784;-56
2022/07/29 01:02:43;;;;;;;;;;;;;;;;;;1040119;28;4257;-56
2022/07/29 01:03:14;;;;;;;;;;;;;;;;;;1040307;28;2275;-58
2022/07/29 01:03:44;;;;;;;;;;;;;;;;;;1040287;28;4465;-55
2022/07/29 01:04:14;;;;;;;;;;;;;;;;;;1038973;28;3110;-54
2022/07/29 01:04:44;;;;;;;;;;;;;;;;;;1040353;28;4439;-57
2022/07/29 01:05:17;;;;;;;;;;;;;;;;;;1040784;28;1811;-57
2022/07/29 01:05:47;;;;;;;;;;;;;;;;;;1040973;28;4012;-58
2022/07/29 01:06:18;;;;;;;;;;;;;;;;;;1040481;28;2660;-59
2022/07/29 01:06:48;;;;;;;;;;;;;;;;;;1038392;28;3904;-58
2022/07/29 01:07:19;;;;;;;;;;;;;;;;;;1039976;28;3610;-57
2022/07/29 01:07:52;;;;;;;;;;;;;;;;;;1035120;28;4031;-53
2022/07/29 01:08:22;;;;;;;;;;;;;;;;;;1034707;28;4312;-56
2022/07/29 01:08:53;;;;;;;;;;;;;;;;;;1035536;28;2107;-55
2022/07/29 01:09:24;;;;;;;;;;;;;;;;;;1041174;28;4068;-54
2022/07/29 01:09:55;;;;;;;;;;;;;;;;;;1044872;28;2588;-54
2022/07/29 01:10:25;;;;;;;;;;;;;;;;;;1043579;28;4015;-56
2022/07/29 01:10:56;;;;;;;;;;;;;;;;;;1043992;28;3377;-54
2022/07/29 01:11:27;;;;;;;;;;;;;;;;;;1043562;28;3875;-55
2022/07/29 01:11:58;;;;;;;;;;;;;;;;;;1042938;28;3947;-56
2022/07/29 01:12:29;;;;;;;;;;;;;;;;;;1039875;28;4000;-57
2022/07/29 01:13:00;;;;;;;;;;;;;;;;;;1040903;28;3051;-57
2022/07/29 01:13:33;;;;;;;;;;;;;;;;;;1039179;28;4241;-54
2022/07/29 01:14:03;;;;;;;;;;;;;;;;;;1040203;28;3388;-58
2022/07/29 01:14:33;;;;;;;;;;;;;;;;;;1040495;28;3931;-55
2022/07/29 01:15:05;;;;;;;;;;;;;;;;;;1041014;28;1900;-53
2022/07/29 01:15:45;;;;;;;;;;;;;;;;;;1039913;28;4456;-55
2022/07/29 01:16:20;;;;;;;;;;;;;;;;;;1041551;28;3060;-57
2022/07/29 01:17:01;;;;;;;;;;;;;;;;;;1041079;28;3793;-54
2022/07/29 01:17:49;;;;;;;;;;;;;;;;;;1039354;28;4028;-52
2022/07/29 01:18:28;;;;;;;;;;;;;;;;;;1041370;28;2852;-58
2022/07/29 01:19:07;;;;;;;;;;;;;;;;;;1037718;28;5329;-56
2022/07/29 01:19:49;;;;;;;;;;;;;;;;;;1039884;28;4225;-55
2022/07/29 01:20:24;;;;;;;;;;;;;;;;;;1039850;28;4151;-56
2022/07/29 01:21:07;;;;;;;;;;;;;;;;;;1040728;28;3742;-58
2022/07/29 01:21:40;;;;;;;;;;;;;;;;;;1039163;28;3939;-56
2022/07/29 01:22:24;;;;;;;;;;;;;;;;;;1040534;28;2879;-55
2022/07/29 01:23:05;;;;;;;;;;;;;;;;;;1038354;28;4266;-55
2022/07/29 01:23:35;;;;;;;;;;;;;;;;;;1039983;28;3955;-55
2022/07/29 01:24:15;;;;;;;;;;;;;;;;;;1041578;28;1643;-57
2022/07/29 01:24:45;;;;;;;;;;;;;;;;;;1040603;28;3781;-55
2022/07/29 01:25:25;;;;;;;;;;;;;;;;;;1041334;28;1764;-56
2022/07/29 01:26:07;;;;;;;;;;;;;;;;;;1039706;28;4071;-59
2022/07/29 01:26:46;;;;;;;;;;;;;;;;;;1039289;28;4422;-58
2022/07/29 01:27:32;;;;;;;;;;;;;;;;;;1040092;28;2320;-56
2022/07/29 01:28:22;;;;;;;;;;;;;;;;;;1039511;28;3789;-50
2022/07/29 01:29:11;;;;;;;;;;;;;;;;;;1040085;28;4933;-56
2022/07/29 01:29:43;;;;;;;;;;;;;;;;;;1039992;28;4087;-57
2022/07/29 01:30:13;;;;;;;;;;;;;;;;;;1040506;28;2919;-56
2022/07/29 01:30:44;;;;;;;;;;;;;;;;;;1038784;28;4000;-56
2022/07/29 01:31:17;;;;;;;;;;;;;;;;;;1040384;28;3682;-57
2022/07/29 01:31:50;;;;;;;;;;;;;;;;;;1039436;28;3796;-58
2022/07/29 01:32:24;;;;;;;;;;;;;;;;;;1041077;28;1922;-51
2022/07/29 01:32:56;;;;;;;;;;;;;;;;;;1039387;28;3960;-55
2022/07/29 01:34:20;;;;;;;;;;;;;;;;;;1040197;28;2631;-58
2022/07/29 01:35:02;;;;;;;;;;;;;;;;;;1040952;28;3793;-56
2022/07/29 01:35:38;;;;;;;;;;;;;;;;;;1040734;28;3980;-56
2022/07/29 01:36:12;;;;;;;;;;;;;;;;;;1040161;28;3016;-53
2022/07/29 01:36:45;;;;;;;;;;;;;;;;;;1039745;28;4426;-56
2022/07/29 01:37:18;;;;;;;;;;;;;;;;;;1041009;28;2730;-58
2022/07/29 01:37:57;;;;;;;;;;;;;;;;;;1039223;28;4066;-57
2022/07/29 01:38:35;;;;;;;;;;;;;;;;;;1039585;28;4452;-57
2022/07/29 01:39:13;;;;;;;;;;;;;;;;;;1041256;28;2576;-54
2022/07/29 01:39:45;;;;;;;;;;;;;;;;;;1039819;28;4410;-57
2022/07/29 01:40:20;;;;;;;;;;;;;;;;;;1040761;28;2460;-58
2022/07/29 01:40:52;;;;;;;;;;;;;;;;;;1039673;28;3961;-53
2022/07/29 01:41:23;;;;;;;;;;;;;;;;;;1040687;28;3874;-57
2022/07/29 01:41:59;;;;;;;;;;;;;;;;;;1041032;28;3245;-56
2022/07/29 01:42:38;;;;;;;;;;;;;;;;;;1039136;28;4311;-56
2022/07/29 01:43:17;;;;;;;;;;;;;;;;;;1039583;28;2330;-57
2022/07/29 01:43:50;;;;;;;;;;;;;;;;;;1037997;28;4597;-55
2022/07/29 01:44:24;;;;;;;;;;;;;;;;;;1039336;28;2920;-56
2022/07/29 01:45:26;;;;;;;;;;;;;;;;;;1040014;28;3896;-59
2022/07/29 01:46:05;;;;;;;;;;;;;;;;;;1044427;28;3974;-55
2022/07/29 01:46:36;;;;;;;;;;;;;;;;;;1039616;28;4054;-56
2022/07/29 01:47:11;;;;;;;;;;;;;;;;;;1041212;28;3865;-57
2022/07/29 01:48:02;;;;;;;;;;;;;;;;;;1041103;28;3987;-56
2022/07/29 01:48:44;;;;;;;;;;;;;;;;;;1042822;28;4421;-53
2022/07/29 01:49:16;;;;;;;;;;;;;;;;;;1044692;28;3413;-54
2022/07/29 01:49:49;;;;;;;;;;;;;;;;;;1044611;28;4488;-57
2022/07/29 01:50:21;;;;;;;;;;;;;;;;;;1045023;28;2877;-55
2022/07/29 01:50:56;;;;;;;;;;;;;;;;;;1039391;28;4178;-58
2022/07/29 01:51:30;;;;;;;;;;;;;;;;;;1038967;28;3792;-57
2022/07/29 01:52:05;;;;;;;;;;;;;;;;;;1039980;28;1987;-55
2022/07/29 01:52:47;;;;;;;;;;;;;;;;;;1041469;28;3913;-56
2022/07/29 01:53:22;;;;;;;;;;;;;;;;;;1043645;28;2564;-57
2022/07/29 01:53:58;;;;;;;;;;;;;;;;;;1044571;28;3841;-56
2022/07/29 01:54:35;;;;;;;;;;;;;;;;;;1044424;28;4061;-58
2022/07/29 01:55:11;;;;;;;;;;;;;;;;;;1044871;28;3011;-55
2022/07/29 01:55:43;;;;;;;;;;;;;;;;;;1043686;28;4034;-57
2022/07/29 01:56:16;;;;;;;;;;;;;;;;;;1041419;28;2178;-55
2022/07/29 01:56:48;;;;;;;;;;;;;;;;;;1040768;28;4436;-55
2022/07/29 01:57:19;;;;;;;;;;;;;;;;;;1039858;28;3741;-53
2022/07/29 01:57:50;;;;;;;;;;;;;;;;;;1041992;28;3824;-57
2022/07/29 01:58:21;;;;;;;;;;;;;;;;;;1044015;28;2610;-55
2022/07/29 01:58:52;;;;;;;;;;;;;;;;;;1044885;28;3864;-57
2022/07/29 01:59:23;;;;;;;;;;;;;;;;;;1043579;28;4080;-55
2022/07/29 01:59:54;;;;;;;;;;;;;;;;;;1045051;28;1795;-57
2022/07/29 02:00:25;;;;;;;;;;;;;;;;;;1043216;28;3952;-59
2022/07/29 02:00:56;;;;;;;;;;;;;;;;;;1043524;28;3729;-57
2022/07/29 02:01:27;;;;;;;;;;;;;;;;;;1043962;28;4063;-54
2022/07/29 02:01:58;;;;;;;;;;;;;;;;;;1045356;28;1691;-56
2022/07/29 02:02:29;;;;;;;;;;;;;;;;;;1043941;28;3826;-55
2022/07/29 02:03:07;;;;;;;;;;;;;;;;;;1044183;28;2660;-54
2022/07/29 02:03:37;;;;;;;;;;;;;;;;;;1043043;28;4051;-57
2022/07/29 02:04:09;;;;;;;;;;;;;;;;;;1045193;28;3307;-58
2022/07/29 02:04:40;;;;;;;;;;;;;;;;;;1043898;28;5280;-56
2022/07/29 02:05:12;;;;;;;;;;;;;;;;;;1044071;28;2869;-55
2022/07/29 02:05:45;;;;;;;;;;;;;;;;;;1044009;28;3867;-58
2022/07/29 02:06:17;;;;;;;;;;;;;;;;;;1044592;28;2809;-57
2022/07/29 02:06:49;;;;;;;;;;;;;;;;;;1044615;28;3836;-57
2022/07/29 02:07:20;;;;;;;;;;;;;;;;;;1043599;28;2971;-54
2022/07/29 02:07:51;;;;;;;;;;;;;;;;;;1043154;28;3975;-57
2022/07/29 02:08:22;;;;;;;;;;;;;;;;;;1043898;28;4322;-54
2022/07/29 02:08:54;;;;;;;;;;;;;;;;;;1044826;28;2073;-55
2022/07/29 02:09:24;;;;;;;;;;;;;;;;;;1044579;28;3814;-56
2022/07/29 02:09:56;;;;;;;;;;;;;;;;;;1044866;28;2448;-59
2022/07/29 02:10:28;;;;;;;;;;;;;;;;;;1043917;28;3830;-51
2022/07/29 02:10:59;;;;;;;;;;;;;;;;;;1043799;28;3226;-56
2022/07/29 02:11:31;;;;;;;;;;;;;;;;;;1044801;28;4289;-58
2022/07/29 02:12:03;;;;;;;;;;;;;;;;;;1044162;28;2763;-56
2022/07/29 02:12:33;;;;;;;;;;;;;;;;;;1045108;28;3900;-56
2022/07/29 02:13:04;;;;;;;;;;;;;;;;;;1043393;28;3623;-55
2022/07/29 02:13:35;;;;;;;;;;;;;;;;;;1039314;28;4312;-56
2022/07/29 02:14:06;;;;;;;;;;;;;;;;;;1041085;28;2504;-55
2022/07/29 02:14:39;;;;;;;;;;;;;;;;;;1040788;28;3934;-56
2022/07/29 02:15:10;;;;;;;;;;;;;;;;;;1040112;28;2855;-58
2022/07/29 02:15:41;;;;;;;;;;;;;;;;;;1044519;28;3766;-58
2022/07/29 02:16:12;;;;;;;;;;;;;;;;;;1045048;28;3549;-56
2022/07/29 02:16:43;;;;;;;;;;;;;;;;;;1045195;28;4017;-56
2022/07/29 02:17:17;;;;;;;;;;;;;;;;;;1043681;28;2901;-56
2022/07/29 02:17:53;;;;;;;;;;;;;;;;;;1043632;28;4350;-56
2022/07/29 02:18:25;;;;;;;;;;;;;;;;;;1043781;28;4058;-55
2022/07/29 02:18:56;;;;;;;;;;;;;;;;;;1044203;28;3206;-57
2022/07/29 02:19:27;;;;;;;;;;;;;;;;;;1043332;28;4094;-58
2022/07/29 02:19:59;;;;;;;;;;;;;;;;;;1042587;28;3686;-55
2022/07/29 02:20:30;;;;;;;;;;;;;;;;;;1044600;28;3787;-53
2022/07/29 02:21:01;;;;;;;;;;;;;;;;;;1042590;28;3377;-58
2022/07/29 02:21:32;;;;;;;;;;;;;;;;;;1045216;28;4065;-54
2022/07/29 02:22:02;;;;;;;;;;;;;;;;;;1042564;28;3534;-59
2022/07/29 02:22:35;;;;;;;;;;;;;;;;;;1041081;28;4020;-54
2022/07/29 02:23:06;;;;;;;;;;;;;;;;;;1040375;28;2417;-52
2022/07/29 02:23:38;;;;;;;;;;;;;;;;;;1041093;28;3862;-54
2022/07/29 02:24:11;;;;;;;;;;;;;;;;;;1037155;28;2757;-56
2022/07/29 02:24:42;;;;;;;;;;;;;;;;;;1038602;28;4159;-57
2022/07/29 02:25:13;;;;;;;;;;;;;;;;;;1039055;28;3878;-57
2022/07/29 02:25:43;;;;;;;;;;;;;;;;;;1039294;28;4047;-54
2022/07/29 02:26:14;;;;;;;;;;;;;;;;;;1043747;28;2777;-57
2022/07/29 02:26:45;;;;;;;;;;;;;;;;;;1043549;28;5340;-55
2022/07/29 02:27:16;;;;;;;;;;;;;;;;;;1045124;28;1744;-58
2022/07/29 02:27:47;;;;;;;;;;;;;;;;;;1044234;28;4189;-56
2022/07/29 02:28:18;;;;;;;;;;;;;;;;;;1044083;28;2449;-54
2022/07/29 02:28:51;;;;;;;;;;;;;;;;;;1042084;28;3782;-58
2022/07/29 02:29:23;;;;;;;;;;;;;;;;;;1043250;28;3066;-53
2022/07/29 02:29:54;;;;;;;;;;;;;;;;;;1044812;28;3865;-54
2022/07/29 02:30:25;;;;;;;;;;;;;;;;;;1042619;28;3903;-58
2022/07/29 02:30:56;;;;;;;;;;;;;;;;;;1044322;28;2212;-57
2022/07/29 02:31:30;;;;;;;;;;;;;;;;;;1043190;28;4090;-58
2022/07/29 02:32:00;;;;;;;;;;;;;;;;;;1044928;28;3269;-58
2022/07/29 02:32:31;;;;;;;;;;;;;;;;;;1043802;28;3885;-55
2022/07/29 02:33:03;;;;;;;;;;;;;;;;;;1044806;28;2344;-54
2022/07/29 02:33:33;;;;;;;;;;;;;;;;;;1044293;28;3971;-57
2022/07/29 02:34:06;;;;;;;;;;;;;;;;;;1043915;28;3265;-55
2022/07/29 02:34:38;;;;;;;;;;;;;;;;;;1042694;28;3792;-54
2022/07/29 02:35:09;;;;;;;;;;;;;;;;;;1043931;28;2486;-57
2022/07/29 02:35:40;;;;;;;;;;;;;;;;;;1043872;28;4104;-56
2022/07/29 02:36:17;;;;;;;;;;;;;;;;;;1040509;28;1803;-55
2022/07/29 02:36:48;;;;;;;;;;;;;;;;;;1039486;28;4408;-52
2022/07/29 02:37:19;;;;;;;;;;;;;;;;;;1040801;28;3914;-57
2022/07/29 02:38:49;;;;;;;;;;;;;;;;;;1040184;28;3749;-57
2022/07/29 02:38:51;;;;;;;;;;;;;;;;;;1043730;28;3918;-56
2022/07/29 02:39:22;;;;;;;;;;;;;;;;;;1039522;28;2750;-58
2022/07/29 02:39:54;;;;;;;;;;;;;;;;;;1034944;28;4903;-58
2022/07/29 02:40:24;;;;;;;;;;;;;;;;;;1034147;28;4172;-55
2022/07/29 02:40:55;;;;;;;;;;;;;;;;;;1035006;28;3911;-56
2022/07/29 02:41:30;;;;;;;;;;;;;;;;;;1039965;28;5122;-55
2022/07/29 02:42:05;;;;;;;;;;;;;;;;;;1042265;28;3063;-57
2022/07/29 02:42:36;;;;;;;;;;;;;;;;;;1043508;28;3905;-57
2022/07/29 02:43:07;;;;;;;;;;;;;;;;;;1040222;28;2280;-57
2022/07/29 02:43:38;;;;;;;;;;;;;;;;;;1034437;28;3873;-53
2022/07/29 02:44:10;;;;;;;;;;;;;;;;;;1035227;28;3157;-53
2022/07/29 02:44:41;;;;;;;;;;;;;;;;;;1036222;28;3798;-54
2022/07/29 02:45:25;;;;;;;;;;;;;;;;;;1036399;28;2872;-55
2022/07/29 02:46:04;;;;;;;;;;;;;;;;;;1034677;28;4074;-55
2022/07/29 02:46:36;;;;;;;;;;;;;;;;;;1036615;28;3841;-56
2022/07/29 02:47:09;;;;;;;;;;;;;;;;;;1036873;28;2205;-56
2022/07/29 02:47:40;;;;;;;;;;;;;;;;;;1036111;28;4410;-57
2022/07/29 02:48:14;;;;;;;;;;;;;;;;;;1035983;28;2676;-57
2022/07/29 02:49:14;;;;;;;;;;;;;;;;;;1036089;28;3901;-56
2022/07/29 02:49:52;;;;;;;;;;;;;;;;;;1025537;28;3828;-55
2022/07/29 02:50:30;;;;;;;;;;;;;;;;;;1026788;28;4011;-56
2022/07/29 02:51:26;;;;;;;;;;;;;;;;;;1026803;28;3630;-55
2022/07/29 02:52:08;;;;;;;;;;;;;;;;;;1031161;28;3788;-58
2022/07/29 02:52:44;;;;;;;;;;;;;;;;;;1034895;28;3989;-55
2022/07/29 02:53:16;;;;;;;;;;;;;;;;;;1035124;28;2942;-58
2022/07/29 02:53:48;;;;;;;;;;;;;;;;;;1035814;28;3994;-57
2022/07/29 02:54:21;;;;;;;;;;;;;;;;;;1036383;28;2154;-57
2022/07/29 02:54:56;;;;;;;;;;;;;;;;;;1034715;28;3962;-57
2022/07/29 02:55:36;;;;;;;;;;;;;;;;;;1033947;28;3948;-53
2022/07/29 02:56:09;;;;;;;;;;;;;;;;;;1035921;28;2499;-57
2022/07/29 02:56:40;;;;;;;;;;;;;;;;;;1034230;28;3785;-55
2022/07/29 02:57:29;;;;;;;;;;;;;;;;;;1035482;28;3156;-55
2022/07/29 02:58:01;;;;;;;;;;;;;;;;;;1035294;28;3932;-57
2022/07/29 02:58:33;;;;;;;;;;;;;;;;;;1035453;28;4066;-52
2022/07/29 02:59:09;;;;;;;;;;;;;;;;;;1036782;28;2008;-53
2022/07/29 02:59:40;;;;;;;;;;;;;;;;;;1034755;28;4102;-53
2022/07/29 03:00:11;;;;;;;;;;;;;;;;;;1034987;28;4038;-59
2022/07/29 03:00:42;;;;;;;;;;;;;;;;;;1036410;28;4008;-55
2022/07/29 03:01:15;;;;;;;;;;;;;;;;;;1035236;28;3965;-59
2022/07/29 03:01:46;;;;;;;;;;;;;;;;;;1036442;28;4469;-56
2022/07/29 03:02:16;;;;;;;;;;;;;;;;;;1035362;28;1838;-55
2022/07/29 03:02:49;;;;;;;;;;;;;;;;;;1036339;28;3910;-58
2022/07/29 03:03:21;;;;;;;;;;;;;;;;;;1036746;28;2462;-56
2022/07/29 03:03:52;;;;;;;;;;;;;;;;;;1036690;28;4847;-57
2022/07/29 03:04:24;;;;;;;;;;;;;;;;;;1031042;28;4097;-55
2022/07/29 03:04:55;;;;;;;;;;;;;;;;;;1035444;28;2364;-55
2022/07/29 03:05:26;;;;;;;;;;;;;;;;;;1034612;28;3967;-53
2022/07/29 03:05:56;;;;;;;;;;;;;;;;;;1035445;28;3011;-58
2022/07/29 03:06:28;;;;;;;;;;;;;;;;;;1035382;28;4420;-57
2022/07/29 03:06:59;;;;;;;;;;;;;;;;;;1035709;28;2667;-54
2022/07/29 03:07:30;;;;;;;;;;;;;;;;;;1035306;28;4344;-59
2022/07/29 03:08:03;;;;;;;;;;;;;;;;;;1035984;28;2319;-55
2022/07/29 03:08:34;;;;;;;;;;;;;;;;;;1035629;28;3813;-58
2022/07/29 03:09:06;;;;;;;;;;;;;;;;;;1035497;28;3086;-58
2022/07/29 03:09:36;;;;;;;;;;;;;;;;;;1035255;28;3892;-53
2022/07/29 03:10:08;;;;;;;;;;;;;;;;;;1037286;28;2114;-54
2022/07/29 03:10:39;;;;;;;;;;;;;;;;;;1035161;28;3964;-56
2022/07/29 03:11:10;;;;;;;;;;;;;;;;;;1037623;28;1991;-55
2022/07/29 03:11:41;;;;;;;;;;;;;;;;;;1035444;28;4099;-56
2022/07/29 03:12:13;;;;;;;;;;;;;;;;;;1040353;28;2871;-59
2022/07/29 03:12:44;;;;;;;;;;;;;;;;;;1039630;28;3940;-56
2022/07/29 03:13:14;;;;;;;;;;;;;;;;;;1039488;28;3829;-56
2022/07/29 03:13:44;;;;;;;;;;;;;;;;;;1038241;28;4351;-58
2022/07/29 03:14:16;;;;;;;;;;;;;;;;;;1036445;28;2263;-56
2022/07/29 03:14:46;;;;;;;;;;;;;;;;;;1032896;28;3849;-59
2022/07/29 03:15:17;;;;;;;;;;;;;;;;;;1034745;28;3298;-51
2022/07/29 03:15:48;;;;;;;;;;;;;;;;;;1034876;28;3927;-54
2022/07/29 03:16:19;;;;;;;;;;;;;;;;;;1035398;28;2060;-58
2022/07/29 03:16:50;;;;;;;;;;;;;;;;;;1036019;28;4058;-58
2022/07/29 03:17:21;;;;;;;;;;;;;;;;;;1035067;28;2878;-58
2022/07/29 03:17:52;;;;;;;;;;;;;;;;;;1035322;28;3823;-57
2022/07/29 03:18:22;;;;;;;;;;;;;;;;;;1035676;28;4415;-54
2022/07/29 03:18:52;;;;;;;;;;;;;;;;;;1035745;28;3821;-55
2022/07/29 03:19:23;;;;;;;;;;;;;;;;;;1035584;28;4084;-55
2022/07/29 03:19:54;;;;;;;;;;;;;;;;;;1035382;28;3033;-53
2022/07/29 03:20:25;;;;;;;;;;;;;;;;;;1034469;28;4386;-55
2022/07/29 03:20:55;;;;;;;;;;;;;;;;;;1035478;28;2010;-58
2022/07/29 03:21:25;;;;;;;;;;;;;;;;;;1035648;28;3896;-57
2022/07/29 03:21:57;;;;;;;;;;;;;;;;;;1035151;28;3986;-56
2022/07/29 03:22:27;;;;;;;;;;;;;;;;;;1035559;28;4504;-55
2022/07/29 03:22:58;;;;;;;;;;;;;;;;;;1039476;28;3282;-57
2022/07/29 03:23:28;;;;;;;;;;;;;;;;;;1038818;28;3927;-53
2022/07/29 03:23:58;;;;;;;;;;;;;;;;;;1040562;28;2320;-55
2022/07/29 03:24:33;;;;;;;;;;;;;;;;;;1035642;28;3771;-53
2022/07/29 03:25:09;;;;;;;;;;;;;;;;;;1035325;28;2825;-58
2022/07/29 03:25:39;;;;;;;;;;;;;;;;;;1035517;28;4117;-55
2022/07/29 03:26:10;;;;;;;;;;;;;;;;;;1035786;28;3574;-54
2022/07/29 03:26:40;;;;;;;;;;;;;;;;;;1035359;28;3854;-57
2022/07/29 03:27:11;;;;;;;;;;;;;;;;;;1035489;28;1980;-56
2022/07/29 03:27:41;;;;;;;;;;;;;;;;;;1035933;28;3980;-56
2022/07/29 03:28:12;;;;;;;;;;;;;;;;;;1036515;28;2133;-56
2022/07/29 03:28:42;;;;;;;;;;;;;;;;;;1036097;28;4044;-55
2022/07/29 03:29:12;;;;;;;;;;;;;;;;;;1031432;28;2938;-53
2022/07/29 03:29:42;;;;;;;;;;;;;;;;;;1031908;28;4402;-54
2022/07/29 03:30:13;;;;;;;;;;;;;;;;;;1032107;28;3802;-58
2022/07/29 03:30:43;;;;;;;;;;;;;;;;;;1035300;28;3774;-57
2022/07/29 03:31:14;;;;;;;;;;;;;;;;;;1036024;28;2165;-55
2022/07/29 03:31:44;;;;;;;;;;;;;;;;;;1035116;28;4549;-53
2022/07/29 03:32:14;;;;;;;;;;;;;;;;;;1036665;28;2428;-56
2022/07/29 03:32:44;;;;;;;;;;;;;;;;;;1035247;28;3854;-53
2022/07/29 03:33:15;;;;;;;;;;;;;;;;;;1035294;28;4339;-54
2022/07/29 03:33:45;;;;;;;;;;;;;;;;;;1031495;28;4651;-58
2022/07/29 03:34:15;;;;;;;;;;;;;;;;;;1036309;28;4303;-54
2022/07/29 03:34:46;;;;;;;;;;;;;;;;;;1034998;28;4562;-58
2022/07/29 03:35:16;;;;;;;;;;;;;;;;;;1035715;28;4389;-55
2022/07/29 03:35:46;;;;;;;;;;;;;;;;;;1035360;28;3988;-57
2022/07/29 03:36:24;;;;;;;;;;;;;;;;;;1034748;28;4057;-56
2022/07/29 03:36:54;;;;;;;;;;;;;;;;;;1035790;28;2170;-55
2022/07/29 03:37:25;;;;;;;;;;;;;;;;;;1035731;28;4468;-58
2022/07/29 03:37:55;;;;;;;;;;;;;;;;;;1036551;28;2599;-57
2022/07/29 03:38:27;;;;;;;;;;;;;;;;;;1036201;28;4442;-57
2022/07/29 03:38:58;;;;;;;;;;;;;;;;;;1037279;28;2170;-55
2022/07/29 03:39:30;;;;;;;;;;;;;;;;;;1035491;28;3790;-55
2022/07/29 03:40:02;;;;;;;;;;;;;;;;;;1035148;28;2468;-57
2022/07/29 03:40:42;;;;;;;;;;;;;;;;;;1035676;28;4038;-56
2022/07/29 03:41:13;;;;;;;;;;;;;;;;;;1035745;28;3140;-56
2022/07/29 03:41:45;;;;;;;;;;;;;;;;;;1034842;28;3876;-53
2022/07/29 03:42:16;;;;;;;;;;;;;;;;;;1038791;28;2183;-57
2022/07/29 03:42:46;;;;;;;;;;;;;;;;;;1038169;28;4049;-58
2022/07/29 03:43:18;;;;;;;;;;;;;;;;;;1039811;28;2216;-53
2022/07/29 03:43:49;;;;;;;;;;;;;;;;;;1037308;28;3803;-55
2022/07/29 03:44:20;;;;;;;;;;;;;;;;;;1036595;28;2167;-53
2022/07/29 03:44:52;;;;;;;;;;;;;;;;;;1035442;28;3981;-60
2022/07/29 03:45:36;;;;;;;;;;;;;;;;;;1035407;28;3868;-59
2022/07/29 03:46:15;;;;;;;;;;;;;;;;;;1037587;28;2066;-57
2022/07/29 03:46:48;;;;;;;;;;;;;;;;;;1035512;28;3838;-56
2022/07/29 03:47:20;;;;;;;;;;;;;;;;;;1036227;28;2701;-56
2022/07/29 03:47:53;;;;;;;;;;;;;;;;;;1036761;28;4303;-56
2022/07/29 03:48:25;;;;;;;;;;;;;;;;;;1035740;28;3965;-54